createdAt,value
2023-04-18T00:01:26.219Z,8.35
2023-04-18T00:03:54.321Z,7.23
2023-04-18T00:06:22.666Z,8.50
2023-04-18T00:08:51.015Z,8.17
2023-04-18T00:11:19.079Z,7.55
2023-04-18T00:13:48.819Z,10.30
2023-04-18T00:16:16.930Z,8.73
2023-04-18T00:18:44.984Z,7.03
2023-04-18T00:21:13.473Z,8.00
2023-04-18T00:23:42.105Z,9.48
2023-04-18T00:26:10.212Z,7.88
2023-04-18T00:28:38.844Z,7.07
2023-04-18T00:31:08.526Z,8.50
2023-04-18T00:33:36.566Z,7.97
2023-04-18T00:36:05.160Z,7.32
2023-04-18T00:38:33.116Z,9.43
2023-04-18T00:41:01.148Z,6.80
2023-04-18T00:43:29.220Z,6.53
2023-04-18T00:46:01.344Z,9.23
2023-04-18T00:48:31.371Z,8.07
2023-04-18T00:51:00.321Z,8.27
2023-04-18T00:53:29.078Z,8.50
2023-04-18T00:55:57.257Z,8.00
2023-04-18T00:58:25.811Z,7.80
2023-04-18T01:00:54.370Z,7.73
2023-04-18T01:03:24.178Z,7.70
2023-04-18T01:05:54.796Z,7.90
2023-04-18T01:08:23.336Z,7.43
2023-04-18T01:10:51.657Z,7.93
2023-04-18T01:13:21.448Z,7.93
2023-04-18T01:15:50.585Z,7.97
2023-04-18T01:18:19.024Z,6.40
2023-04-18T01:20:48.709Z,8.25
2023-04-18T01:23:19.098Z,8.10
2023-04-18T01:25:50.395Z,8.30
2023-04-18T01:28:21.224Z,5.90
2023-04-18T01:30:49.969Z,6.77
2023-04-18T01:33:17.996Z,6.80
2023-04-18T01:35:48.271Z,5.93
2023-04-18T01:38:16.248Z,5.38
2023-04-18T01:40:44.289Z,5.87
2023-04-18T01:43:13.764Z,6.37
2023-04-18T01:45:42.002Z,6.33
2023-04-18T01:48:10.194Z,4.53
2023-04-18T01:50:38.297Z,5.70
2023-04-18T01:53:06.244Z,5.70
2023-04-18T01:55:34.183Z,5.13
2023-04-18T01:58:02.228Z,6.03
2023-04-18T02:00:31.643Z,4.83
2023-04-18T02:03:00.265Z,5.90
2023-04-18T02:05:28.332Z,5.77
2023-04-18T02:07:56.298Z,4.90
2023-04-18T02:10:24.570Z,5.37
2023-04-18T02:12:52.528Z,3.77
2023-04-18T02:15:20.996Z,4.70
2023-04-18T02:17:50.529Z,4.60
2023-04-18T02:20:18.617Z,4.17
2023-04-18T02:22:48.120Z,4.70
2023-04-18T02:25:16.148Z,3.83
2023-04-18T02:27:44.187Z,3.40
2023-04-18T02:30:12.595Z,3.33
2023-04-18T02:32:40.695Z,3.80
2023-04-18T02:35:11.456Z,3.50
2023-04-18T02:37:39.620Z,3.57
2023-04-18T02:40:09.083Z,4.23
2023-04-18T02:42:37.109Z,4.40
2023-04-18T02:45:05.900Z,5.50
2023-04-18T02:47:47.065Z,5.00
2023-04-18T02:50:21.979Z,4.70
2023-04-18T02:52:50.288Z,4.50
2023-04-18T02:55:21.926Z,3.17
2023-04-18T02:57:50.003Z,3.87
2023-04-18T03:00:41.309Z,4.27
2023-04-18T03:03:50.359Z,4.45
2023-04-18T03:06:29.484Z,4.23
2023-04-18T03:08:58.241Z,4.17
2023-04-18T03:11:27.063Z,5.00
2023-04-18T03:13:56.293Z,3.93
2023-04-18T03:16:26.925Z,3.97
2023-04-18T03:18:54.956Z,5.13
2023-04-18T03:21:25.601Z,5.33
2023-04-18T03:23:55.391Z,5.23
2023-04-18T03:26:25.114Z,5.17
2023-04-18T03:28:54.111Z,4.17
2023-04-18T03:31:22.292Z,5.20
2023-04-18T03:33:51.696Z,5.33
2023-04-18T03:36:25.187Z,5.50
2023-04-18T03:38:56.266Z,4.20
2023-04-18T03:41:25.811Z,5.80
2023-04-18T03:43:53.767Z,6.23
2023-04-18T03:46:22.978Z,6.93
2023-04-18T03:48:52.946Z,6.10
2023-04-18T03:51:21.027Z,6.93
2023-04-18T03:53:49.034Z,5.27
2023-04-18T03:56:19.812Z,5.67
2023-04-18T03:58:56.346Z,6.10
2023-04-18T04:01:25.814Z,7.40
2023-04-18T04:03:54.802Z,6.70
2023-04-18T04:06:23.781Z,7.00
2023-04-18T04:08:51.776Z,8.40
2023-04-18T04:11:25.519Z,5.40
2023-04-18T04:13:54.067Z,6.67
2023-04-18T04:16:28.300Z,7.63
2023-04-18T04:18:57.330Z,7.00
2023-04-18T04:21:31.760Z,9.03
2023-04-18T04:24:01.365Z,7.90
2023-04-18T04:26:39.170Z,8.70
2023-04-18T04:29:16.360Z,7.43
2023-04-18T04:31:46.148Z,8.30
2023-04-18T04:34:18.143Z,8.33
2023-04-18T04:36:46.704Z,8.23
2023-04-18T04:39:15.478Z,7.70
2023-04-18T04:42:07.047Z,8.83
2023-04-18T04:44:44.127Z,7.97
2023-04-18T04:47:12.243Z,8.47
2023-04-18T04:49:41.038Z,8.60
2023-04-18T04:52:09.050Z,8.37
2023-04-18T04:54:37.284Z,7.70
2023-04-18T04:57:09.236Z,7.57
2023-04-18T04:59:37.232Z,8.10
2023-04-18T05:02:06.776Z,7.53
2023-04-18T05:04:36.663Z,7.97
2023-04-18T05:07:05.106Z,7.73
2023-04-18T05:09:33.242Z,5.90
2023-04-18T05:12:01.916Z,7.83
2023-04-18T05:14:31.781Z,6.80
2023-04-18T05:16:59.942Z,7.27
2023-04-18T05:19:28.507Z,8.20
2023-04-18T05:21:57.233Z,8.50
2023-04-18T05:24:25.289Z,8.30
2023-04-18T05:26:53.650Z,9.20
2023-04-18T05:29:22.085Z,8.80
2023-04-18T05:31:51.392Z,8.60
2023-04-18T05:34:19.349Z,10.80
2023-04-18T05:36:47.785Z,10.00
2023-04-18T05:39:15.802Z,10.27
2023-04-18T05:41:43.848Z,10.20
2023-04-18T05:44:11.848Z,10.00
2023-04-18T05:46:40.184Z,11.47
2023-04-18T05:49:09.658Z,11.50
2023-04-18T05:51:37.660Z,13.43
2023-04-18T05:54:05.764Z,12.77
2023-04-18T05:56:34.046Z,11.97
2023-04-18T05:59:02.038Z,14.50
2023-04-18T06:01:30.027Z,12.30
2023-04-18T06:03:59.762Z,15.57
2023-04-18T06:06:29.263Z,12.50
2023-04-18T06:08:57.339Z,14.60
2023-04-18T06:11:25.589Z,14.37
2023-04-18T06:13:55.823Z,13.97
2023-04-18T06:16:24.019Z,16.03
2023-04-18T06:18:52.064Z,17.07
2023-04-18T06:21:21.224Z,20.00
2023-04-18T06:23:50.578Z,18.10
2023-04-18T06:26:18.624Z,18.60
2023-04-18T06:28:46.618Z,18.43
2023-04-18T06:31:14.721Z,17.17
2023-04-18T06:33:42.732Z,21.70
2023-04-18T06:36:10.931Z,21.53
2023-04-18T06:38:39.012Z,21.23
2023-04-18T06:41:08.360Z,20.40
2023-04-18T06:43:36.783Z,21.90
2023-04-18T06:46:06.231Z,19.90
2023-04-18T06:48:34.319Z,19.80
2023-04-18T06:51:02.289Z,19.43
2023-04-18T06:53:30.531Z,20.43
2023-04-18T06:55:59.570Z,20.10
2023-04-18T06:58:30.192Z,22.30
2023-04-18T07:00:58.182Z,22.40
2023-04-18T07:03:26.997Z,20.80
2023-04-18T07:05:55.621Z,22.83
2023-04-18T07:08:23.636Z,21.90
2023-04-18T07:10:52.416Z,23.87
2023-04-18T07:13:20.388Z,19.90
2023-04-18T07:15:49.800Z,21.67
2023-04-18T07:18:30.160Z,20.57
2023-04-18T07:21:02.765Z,25.03
2023-04-18T07:23:30.819Z,23.50
2023-04-18T07:26:01.544Z,20.70
2023-04-18T07:28:29.563Z,21.73
2023-04-18T07:31:01.287Z,21.50
2023-04-18T07:33:31.772Z,18.50
2023-04-18T07:35:59.983Z,20.50
2023-04-18T07:38:28.567Z,19.13
2023-04-18T07:40:58.495Z,18.80
2023-04-18T07:43:26.908Z,20.10
2023-04-18T07:45:55.309Z,21.43
2023-04-18T07:48:26.344Z,22.30
2023-04-18T07:50:54.789Z,22.67
2023-04-18T07:53:22.867Z,22.67
2023-04-18T07:55:52.101Z,22.30
2023-04-18T07:58:20.435Z,24.17
2023-04-18T08:00:48.440Z,21.07
2023-04-18T08:03:16.564Z,22.17
2023-04-18T08:05:46.057Z,20.33
2023-04-18T08:08:14.308Z,19.30
2023-04-18T08:10:42.363Z,18.03
2023-04-18T08:13:13.010Z,17.90
2023-04-18T08:15:41.259Z,18.37
2023-04-18T08:18:09.244Z,16.77
2023-04-18T08:20:37.470Z,15.93
2023-04-18T08:23:10.397Z,17.43
2023-04-18T08:25:40.382Z,15.17
2023-04-18T08:28:08.392Z,16.43
2023-04-18T08:30:36.412Z,15.80
2023-04-18T08:33:04.613Z,16.03
2023-04-18T08:35:32.691Z,14.70
2023-04-18T08:38:02.521Z,13.67
2023-04-18T08:40:32.103Z,15.80
2023-04-18T08:43:04.887Z,16.43
2023-04-18T08:45:33.373Z,15.73
2023-04-18T08:48:03.703Z,15.23
2023-04-18T08:50:32.332Z,16.20
2023-04-18T08:53:01.876Z,15.03
2023-04-18T08:55:33.895Z,15.30
2023-04-18T08:58:02.723Z,16.23
2023-04-18T09:00:30.745Z,15.87
2023-04-18T09:03:00.118Z,15.90
2023-04-18T09:05:28.439Z,14.27
2023-04-18T09:07:57.442Z,17.43
2023-04-18T09:10:32.722Z,17.83
2023-04-18T09:13:04.811Z,14.17
2023-04-18T09:15:32.931Z,15.67
2023-04-18T09:18:03.328Z,15.43
2023-04-18T09:20:38.329Z,16.80
2023-04-18T09:23:10.704Z,16.97
2023-04-18T09:25:46.794Z,15.63
2023-04-18T09:28:33.957Z,18.13
2023-04-18T09:31:11.819Z,16.80
2023-04-18T09:33:43.057Z,17.90
2023-04-18T09:36:18.903Z,15.20
2023-04-18T09:38:47.180Z,16.70
2023-04-18T09:41:19.858Z,16.20
2023-04-18T09:43:48.992Z,15.83
2023-04-18T09:46:17.685Z,17.40
2023-04-18T09:48:46.222Z,17.97
2023-04-18T09:51:16.976Z,17.10
2023-04-18T09:53:47.483Z,17.40
2023-04-18T09:56:25.576Z,16.10
2023-04-18T09:58:57.835Z,16.23
2023-04-18T10:01:28.997Z,17.30
2023-04-18T10:03:58.789Z,18.20
2023-04-18T10:06:28.605Z,14.70
2023-04-18T10:08:57.515Z,18.70
2023-04-18T10:11:27.169Z,15.30
2023-04-18T10:13:57.993Z,16.00
2023-04-18T10:16:27.121Z,16.20
2023-04-18T10:18:55.183Z,16.43
2023-04-18T10:21:23.389Z,15.97
2023-04-18T10:23:51.339Z,17.30
2023-04-18T10:26:19.364Z,17.03
2023-04-18T10:28:54.770Z,15.73
2023-04-18T10:31:24.122Z,17.97
2023-04-18T10:36:28.293Z,16.70
2023-04-18T10:39:02.884Z,18.30
2023-04-18T10:41:32.323Z,17.70
2023-04-18T10:44:22.573Z,17.57
2023-04-18T10:47:20.968Z,19.80
2023-04-18T10:50:01.230Z,19.07
2023-04-18T10:52:30.412Z,18.17
2023-04-18T10:55:27.152Z,18.47
2023-04-18T10:57:57.388Z,19.40
2023-04-18T11:00:27.148Z,18.13
2023-04-18T11:02:57.804Z,19.83
2023-04-18T11:05:27.610Z,20.13
2023-04-18T11:07:56.084Z,20.47
2023-04-18T11:10:26.537Z,18.20
2023-04-18T11:12:55.610Z,17.70
2023-04-18T11:15:28.614Z,19.20
2023-04-18T11:17:59.949Z,17.77
2023-04-18T11:20:28.707Z,18.17
2023-04-18T11:22:58.276Z,17.53
2023-04-18T11:25:28.433Z,18.37
2023-04-18T11:27:59.054Z,17.07
2023-04-18T11:30:29.244Z,19.60
2023-04-18T11:32:57.324Z,18.90
2023-04-18T11:35:25.461Z,18.00
2023-04-18T11:37:56.144Z,16.37
2023-04-18T11:40:24.420Z,17.10
2023-04-18T11:42:55.315Z,17.97
2023-04-18T11:45:23.325Z,16.80
2023-04-18T11:47:58.144Z,16.20
2023-04-18T11:50:27.007Z,16.60
2023-04-18T11:52:55.863Z,15.80
2023-04-18T11:55:27.194Z,17.60
2023-04-18T11:57:57.357Z,18.00
2023-04-18T12:00:33.799Z,16.63
2023-04-18T12:03:05.353Z,17.70
2023-04-18T12:05:36.416Z,17.47
2023-04-18T12:08:09.461Z,20.23
2023-04-18T12:10:37.803Z,16.93
2023-04-18T12:13:08.744Z,15.90
2023-04-18T12:15:40.295Z,18.07
2023-04-18T12:18:09.999Z,18.90
2023-04-18T12:20:46.383Z,18.23
2023-04-18T12:23:30.756Z,18.57
2023-04-18T12:26:03.377Z,17.57
2023-04-18T12:28:32.057Z,15.73
2023-04-18T12:31:00.417Z,17.27
2023-04-18T12:33:29.848Z,17.13
2023-04-18T12:35:57.856Z,16.63
2023-04-18T12:38:25.962Z,17.23
2023-04-18T12:40:53.950Z,24.57
2023-04-18T12:43:21.953Z,17.10
2023-04-18T12:45:50.767Z,17.97
2023-04-18T12:48:18.801Z,17.77
2023-04-18T12:50:49.139Z,20.23
2023-04-18T12:53:17.173Z,24.03
2023-04-18T12:55:45.180Z,19.20
2023-04-18T12:58:18.375Z,20.87
2023-04-18T13:00:46.399Z,19.27
2023-04-18T13:03:14.606Z,19.73
2023-04-18T13:05:42.723Z,18.80
2023-04-18T13:08:17.079Z,17.67
2023-04-18T13:10:47.346Z,19.00
2023-04-18T13:13:15.645Z,19.20
2023-04-18T13:15:43.743Z,18.23
2023-04-18T13:18:11.833Z,19.23
2023-04-18T13:20:39.784Z,18.47
2023-04-18T13:23:07.822Z,20.10
2023-04-18T13:25:37.251Z,18.67
2023-04-18T13:28:05.484Z,18.57
2023-04-18T13:30:35.701Z,18.10
2023-04-18T13:33:03.953Z,17.53
2023-04-18T13:35:32.021Z,18.00
2023-04-18T13:38:00.314Z,17.20
2023-04-18T13:40:28.289Z,18.37
2023-04-18T13:42:57.640Z,19.50
2023-04-18T13:45:25.594Z,20.33
2023-04-18T13:47:53.805Z,18.13
2023-04-18T13:50:23.039Z,19.10
2023-04-18T13:52:51.884Z,16.80
2023-04-18T13:55:19.928Z,19.43
2023-04-18T13:57:47.913Z,22.30
2023-04-18T14:00:19.308Z,21.73
2023-04-18T14:02:47.479Z,20.07
2023-04-18T14:05:15.820Z,21.47
2023-04-18T14:07:43.803Z,19.00
2023-04-18T14:10:12.372Z,20.30
2023-04-18T14:12:41.010Z,19.77
2023-04-18T14:15:11.026Z,24.10
2023-04-18T14:17:41.472Z,20.67
2023-04-18T14:20:10.898Z,22.23
2023-04-18T14:22:38.861Z,23.67
2023-04-18T14:25:08.496Z,25.53
2023-04-18T14:27:37.408Z,24.27
2023-04-18T14:30:06.554Z,23.40
2023-04-18T14:32:35.244Z,22.80
2023-04-18T14:35:07.078Z,21.00
2023-04-18T14:37:35.443Z,21.63
2023-04-18T14:40:05.422Z,20.37
2023-04-18T14:42:33.414Z,19.17
2023-04-18T14:45:01.331Z,21.10
2023-04-18T14:47:31.833Z,21.30
2023-04-18T14:49:59.860Z,28.10
2023-04-18T14:52:29.230Z,31.60
2023-04-18T14:54:57.274Z,25.50
2023-04-18T14:57:31.347Z,24.53
2023-04-18T14:59:59.298Z,20.70
2023-04-18T15:02:27.396Z,19.90
2023-04-18T15:04:55.794Z,22.37
2023-04-18T15:07:23.905Z,20.70
2023-04-18T15:09:53.372Z,23.27
2023-04-18T15:12:21.352Z,22.93
2023-04-18T15:14:49.353Z,22.17
2023-04-18T15:17:17.357Z,24.03
2023-04-18T15:19:45.621Z,23.47
2023-04-18T15:22:14.141Z,19.20
2023-04-18T15:24:42.328Z,20.57
2023-04-18T15:27:12.457Z,22.90
2023-04-18T15:29:42.187Z,22.30
2023-04-18T15:32:10.444Z,20.87
2023-04-18T15:34:38.553Z,21.20
2023-04-18T15:37:06.551Z,19.33
2023-04-18T15:39:34.658Z,21.63
2023-04-18T15:42:02.845Z,19.47
2023-04-18T15:44:32.296Z,24.70
2023-04-18T15:47:01.197Z,18.83
2023-04-18T15:49:29.209Z,20.90
2023-04-18T15:51:57.341Z,22.87
2023-04-18T15:54:25.378Z,22.07
2023-04-18T15:56:53.438Z,23.00
2023-04-18T15:59:21.425Z,26.17
2023-04-18T16:01:51.161Z,22.00
2023-04-18T16:04:19.341Z,22.60
2023-04-18T16:06:49.045Z,17.30
2023-04-18T16:09:17.015Z,20.20
2023-04-18T16:11:45.947Z,19.93
2023-04-18T16:14:14.242Z,24.87
2023-04-18T16:16:42.539Z,20.57
2023-04-18T16:19:11.849Z,28.50
2023-04-18T16:21:39.857Z,25.43
2023-04-18T16:24:08.381Z,24.20
2023-04-18T16:26:36.357Z,21.27
2023-04-18T16:29:04.618Z,20.27
2023-04-18T16:31:32.682Z,20.37
2023-04-18T16:34:01.028Z,20.70
2023-04-18T16:36:30.875Z,21.63
2023-04-18T16:38:59.054Z,21.13
2023-04-18T16:41:27.125Z,19.90
2023-04-18T16:43:55.276Z,19.47
2023-04-18T16:46:23.627Z,18.73
2023-04-18T16:48:52.689Z,18.00
2023-04-18T16:51:21.027Z,18.00
2023-04-18T16:53:50.372Z,17.93
2023-04-18T16:56:18.397Z,17.50
2023-04-18T16:58:46.411Z,16.57
2023-04-18T17:01:14.614Z,17.03
2023-04-18T17:03:42.765Z,18.30
2023-04-18T17:06:10.855Z,21.47
2023-04-18T17:08:38.872Z,18.00
2023-04-18T17:11:10.669Z,21.23
2023-04-18T17:13:39.340Z,20.30
2023-04-18T17:16:08.393Z,21.37
2023-04-18T17:18:36.416Z,15.80
2023-04-18T17:21:04.713Z,15.10
2023-04-18T17:23:33.199Z,16.53
2023-04-18T17:26:01.334Z,17.60
2023-04-18T17:28:30.762Z,19.13
2023-04-18T17:30:58.856Z,15.43
2023-04-18T17:33:26.793Z,15.77
2023-04-18T17:35:55.022Z,15.50
2023-04-18T17:38:23.133Z,16.97
2023-04-18T17:40:59.456Z,16.87
2023-04-18T17:43:27.587Z,20.30
2023-04-18T17:45:57.850Z,26.93
2023-04-18T17:48:27.418Z,30.40
2023-04-18T17:50:55.569Z,18.93
2023-04-18T17:53:23.644Z,19.40
2023-04-18T17:55:52.269Z,15.30
2023-04-18T17:58:20.981Z,20.33
2023-04-18T18:00:49.281Z,19.53
2023-04-18T18:03:19.742Z,17.00
2023-04-18T18:05:48.753Z,16.13
2023-04-18T18:08:17.255Z,17.40
2023-04-18T18:10:46.956Z,17.10
2023-04-18T18:13:15.897Z,17.30
2023-04-18T18:15:43.864Z,16.03
2023-04-18T18:18:12.005Z,24.07
2023-04-18T18:20:43.707Z,21.00
2023-04-18T18:23:11.921Z,18.60
2023-04-18T18:25:40.240Z,19.70
2023-04-18T18:28:08.430Z,16.60
2023-04-18T18:30:37.979Z,17.13
2023-04-18T18:33:06.116Z,18.43
2023-04-18T18:35:34.953Z,24.97
2023-04-18T18:38:04.518Z,19.90
2023-04-18T18:40:32.640Z,16.57
2023-04-18T18:43:00.705Z,22.03
2023-04-18T18:45:29.208Z,18.83
2023-04-18T18:47:57.313Z,22.00
2023-04-18T18:50:25.518Z,20.70
2023-04-18T18:52:53.800Z,19.20
2023-04-18T18:55:23.171Z,20.23
2023-04-18T18:57:51.592Z,17.97
2023-04-18T19:00:19.546Z,18.17
2023-04-18T19:02:47.682Z,15.80
2023-04-18T19:05:17.344Z,18.57
2023-04-18T19:07:45.410Z,18.20
2023-04-18T19:10:13.409Z,16.93
2023-04-18T19:12:42.836Z,15.57
2023-04-18T19:15:12.048Z,16.23
2023-04-18T19:17:40.324Z,18.03
2023-04-18T19:20:09.645Z,18.30
2023-04-18T19:22:38.213Z,24.03
2023-04-18T19:25:07.051Z,18.17
2023-04-18T19:27:35.161Z,17.30
2023-04-18T19:30:04.932Z,15.80
2023-04-18T19:32:33.581Z,19.50
2023-04-18T19:35:01.777Z,19.80
2023-04-18T19:37:29.818Z,18.23
2023-04-18T19:39:57.781Z,15.97
2023-04-18T19:42:25.873Z,15.43
2023-04-18T19:44:53.917Z,15.90
2023-04-18T19:47:24.280Z,15.77
2023-04-18T19:49:52.360Z,14.57
2023-04-18T19:52:20.478Z,12.10
2023-04-18T19:54:48.519Z,12.77
2023-04-18T19:57:16.524Z,11.97
2023-04-18T19:59:44.487Z,13.67
2023-04-18T20:02:12.643Z,14.23
2023-04-18T20:04:43.935Z,13.07
2023-04-18T20:07:12.260Z,13.03
2023-04-18T20:09:40.556Z,14.83
2023-04-18T20:12:08.666Z,13.30
2023-04-18T20:14:39.339Z,12.33
2023-04-18T20:17:07.403Z,14.23
2023-04-18T20:19:35.710Z,12.67
2023-04-18T20:22:05.158Z,13.80
2023-04-18T20:24:34.552Z,15.37
2023-04-18T20:27:02.955Z,12.17
2023-04-18T20:29:31.414Z,15.17
2023-04-18T20:31:59.430Z,13.17
2023-04-18T20:34:27.406Z,16.77
2023-04-18T20:36:55.575Z,15.20
2023-04-18T20:39:25.296Z,15.50
2023-04-18T20:41:54.319Z,16.77
2023-04-18T20:44:22.522Z,16.10
2023-04-18T20:46:50.693Z,16.23
2023-04-18T20:49:18.884Z,17.30
2023-04-18T20:51:47.029Z,15.97
2023-04-18T20:54:15.420Z,17.47
2023-04-18T20:56:44.957Z,15.77
2023-04-18T20:59:13.078Z,16.70
2023-04-18T21:01:41.227Z,13.63
2023-04-18T21:04:09.616Z,14.20
2023-04-18T21:06:37.813Z,16.37
2023-04-18T21:09:06.559Z,14.20
2023-04-18T21:11:34.758Z,14.23
2023-04-18T21:14:06.603Z,16.00
2023-04-18T21:16:35.432Z,14.40
2023-04-18T21:19:03.579Z,14.77
2023-04-18T21:21:31.608Z,13.83
2023-04-18T21:23:59.605Z,13.87
2023-04-18T21:26:27.910Z,15.10
2023-04-18T21:28:57.521Z,14.30
2023-04-18T21:31:28.243Z,13.73
2023-04-18T21:33:56.993Z,13.30
2023-04-18T21:36:26.920Z,14.50
2023-04-18T21:38:56.040Z,14.90
2023-04-18T21:41:25.103Z,16.67
2023-04-18T21:43:53.803Z,13.87
2023-04-18T21:46:23.284Z,13.17
2023-04-18T21:48:52.729Z,13.50
2023-04-18T21:51:20.798Z,15.77
2023-04-18T21:53:48.784Z,16.40
2023-04-18T21:56:17.837Z,16.57
2023-04-18T21:58:46.032Z,13.40
2023-04-18T22:01:14.120Z,15.27
2023-04-18T22:03:42.417Z,11.57
2023-04-18T22:06:11.967Z,14.20
2023-04-18T22:08:42.032Z,15.07
2023-04-18T22:11:11.551Z,16.97
2023-04-18T22:13:39.530Z,12.80
2023-04-18T22:16:08.451Z,17.00
2023-04-18T22:18:37.961Z,16.63
2023-04-18T22:21:06.754Z,16.50
2023-04-18T22:23:36.389Z,15.47
2023-04-18T22:26:04.670Z,18.93
2023-04-18T22:28:33.987Z,19.60
2023-04-18T22:31:02.114Z,17.10
2023-04-18T22:33:30.349Z,19.13
2023-04-18T22:35:58.342Z,17.87
2023-04-18T22:38:26.514Z,16.17
2023-04-18T22:40:55.955Z,19.67
2023-04-18T22:43:24.920Z,19.53
2023-04-18T22:45:52.980Z,17.27
2023-04-18T22:48:21.922Z,18.17
2023-04-18T22:50:50.632Z,15.67
2023-04-18T22:53:18.700Z,16.70
2023-04-18T22:55:46.957Z,18.10
2023-04-18T22:58:16.324Z,16.73
2023-04-18T23:00:44.386Z,18.20
2023-04-18T23:03:12.554Z,16.80
2023-04-18T23:05:42.796Z,14.90
2023-04-18T23:08:11.878Z,14.70
2023-04-18T23:10:40.080Z,15.53
2023-04-18T23:13:08.141Z,16.40
2023-04-18T23:15:38.885Z,16.03
2023-04-18T23:18:07.103Z,14.67
2023-04-18T23:20:36.347Z,14.77
2023-04-18T23:23:04.411Z,18.73
2023-04-18T23:25:33.649Z,15.70
2023-04-18T23:28:01.726Z,17.67
2023-04-18T23:30:29.799Z,19.60
2023-04-18T23:32:59.145Z,16.90
2023-04-18T23:35:27.240Z,17.80
2023-04-18T23:37:57.378Z,18.27
2023-04-18T23:40:26.471Z,16.73
2023-04-18T23:42:55.449Z,17.27
2023-04-18T23:45:24.327Z,16.77
2023-04-18T23:47:54.088Z,15.80
2023-04-18T23:50:23.682Z,17.53
2023-04-18T23:52:51.748Z,14.57
2023-04-18T23:55:19.775Z,16.57
2023-04-18T23:57:47.735Z,14.33
